sensor_id;sensor_type;location;lat;lon;timestamp;temperature;humidity
29255;DHT22;16277;48.890;2.306;2023-04-03T00:09:37;12.90;99.90
29255;DHT22;16277;48.890;2.306;2023-04-03T00:24:42;13.00;99.90
29255;DHT22;16277;48.890;2.306;2023-04-03T00:39:46;13.00;99.90
29255;DHT22;16277;48.890;2.306;2023-04-03T00:54:52;12.90;99.90
29255;DHT22;16277;48.890;2.306;2023-04-03T01:10:00;12.80;99.90
29255;DHT22;16277;48.890;2.306;2023-04-03T01:25:06;12.90;99.90
29255;DHT22;16277;48.890;2.306;2023-04-03T01:40:11;12.90;99.90
29255;DHT22;16277;48.890;2.306;2023-04-03T01:55:15;12.90;99.90
29255;DHT22;16277;48.890;2.306;2023-04-03T02:10:21;12.90;99.90
29255;DHT22;16277;48.890;2.306;2023-04-03T02:25:25;12.70;99.90
29255;DHT22;16277;48.890;2.306;2023-04-03T02:40:30;12.90;99.90
29255;DHT22;16277;48.890;2.306;2023-04-03T02:55:35;12.50;99.90
29255;DHT22;16277;48.890;2.306;2023-04-03T03:10:39;12.70;99.90
29255;DHT22;16277;48.890;2.306;2023-04-03T03:25:44;12.70;99.90
29255;DHT22;16277;48.890;2.306;2023-04-03T03:40:49;12.30;99.90
29255;DHT22;16277;48.890;2.306;2023-04-03T03:55:56;12.60;99.90
29255;DHT22;16277;48.890;2.306;2023-04-03T04:11:03;12.70;99.90
29255;DHT22;16277;48.890;2.306;2023-04-03T04:26:08;12.60;99.90
29255;DHT22;16277;48.890;2.306;2023-04-03T04:41:15;12.40;99.90
29255;DHT22;16277;48.890;2.306;2023-04-03T04:56:21;12.20;99.90
29255;DHT22;16277;48.890;2.306;2023-04-03T05:11:25;12.50;99.00
29255;DHT22;16277;48.890;2.306;2023-04-03T05:26:31;12.50;99.60
29255;DHT22;16277;48.890;2.306;2023-04-03T05:41:40;12.40;99.40
29255;DHT22;16277;48.890;2.306;2023-04-03T05:56:48;12.40;98.70
29255;DHT22;16277;48.890;2.306;2023-04-03T06:11:54;12.60;97.00
29255;DHT22;16277;48.890;2.306;2023-04-03T06:27:03;12.30;97.20
29255;DHT22;16277;48.890;2.306;2023-04-03T06:42:07;12.40;96.50
29255;DHT22;16277;48.890;2.306;2023-04-03T06:57:21;12.20;96.90
29255;DHT22;16277;48.890;2.306;2023-04-03T07:12:25;12.50;96.00
29255;DHT22;16277;48.890;2.306;2023-04-03T07:27:30;12.30;96.40
29255;DHT22;16277;48.890;2.306;2023-04-03T07:42:35;12.40;96.60
29255;DHT22;16277;48.890;2.306;2023-04-03T07:57:40;12.60;96.40
29255;DHT22;16277;48.890;2.306;2023-04-03T08:12:47;12.50;96.50
29255;DHT22;16277;48.890;2.306;2023-04-03T08:27:52;12.70;96.50
29255;DHT22;16277;48.890;2.306;2023-04-03T08:43:08;13.10;96.50
29255;DHT22;16277;48.890;2.306;2023-04-03T08:58:22;13.10;95.40
29255;DHT22;16277;48.890;2.306;2023-04-03T09:13:32;12.80;94.50
29255;DHT22;16277;48.890;2.306;2023-04-03T09:28:39;13.20;94.00
29255;DHT22;16277;48.890;2.306;2023-04-03T09:43:54;13.30;94.00
29255;DHT22;16277;48.890;2.306;2023-04-03T09:59:13;13.30;93.70
29255;DHT22;16277;48.890;2.306;2023-04-03T10:14:21;13.30;93.50
29255;DHT22;16277;48.890;2.306;2023-04-03T10:29:39;13.30;93.40
29255;DHT22;16277;48.890;2.306;2023-04-03T10:44:56;13.50;92.20
29255;DHT22;16277;48.890;2.306;2023-04-03T11:00:05;13.70;91.10
29255;DHT22;16277;48.890;2.306;2023-04-03T11:15:15;13.80;90.40
29255;DHT22;16277;48.890;2.306;2023-04-03T11:30:23;14.00;90.10
29255;DHT22;16277;48.890;2.306;2023-04-03T11:45:36;14.40;90.30
29255;DHT22;16277;48.890;2.306;2023-04-03T12:00:53;14.50;88.00
29255;DHT22;16277;48.890;2.306;2023-04-03T12:15:58;15.10;85.20
29255;DHT22;16277;48.890;2.306;2023-04-03T12:31:04;15.00;82.90
29255;DHT22;16277;48.890;2.306;2023-04-03T12:46:14;15.10;82.20
29255;DHT22;16277;48.890;2.306;2023-04-03T13:01:21;15.80;81.30
29255;DHT22;16277;48.890;2.306;2023-04-03T13:16:27;16.10;79.70
29255;DHT22;16277;48.890;2.306;2023-04-03T13:31:33;16.60;81.30
29255;DHT22;16277;48.890;2.306;2023-04-03T13:46:38;17.30;74.00
29255;DHT22;16277;48.890;2.306;2023-04-03T14:01:45;18.40;69.30
29255;DHT22;16277;48.890;2.306;2023-04-03T14:16:56;21.00;61.20
29255;DHT22;16277;48.890;2.306;2023-04-03T14:32:01;23.90;54.10
29255;DHT22;16277;48.890;2.306;2023-04-03T14:47:19;25.90;46.20
29255;DHT22;16277;48.890;2.306;2023-04-03T15:02:35;28.00;40.80
29255;DHT22;16277;48.890;2.306;2023-04-03T15:17:40;29.60;38.30
29255;DHT22;16277;48.890;2.306;2023-04-03T15:32:45;28.40;37.00
29255;DHT22;16277;48.890;2.306;2023-04-03T15:47:50;27.00;38.50
29255;DHT22;16277;48.890;2.306;2023-04-03T16:02:58;25.70;40.00
29255;DHT22;16277;48.890;2.306;2023-04-03T16:18:05;25.00;42.60
29255;DHT22;16277;48.890;2.306;2023-04-03T16:33:10;24.70;43.00
29255;DHT22;16277;48.890;2.306;2023-04-03T16:48:15;23.60;45.00
29255;DHT22;16277;48.890;2.306;2023-04-03T17:03:19;23.20;45.70
29255;DHT22;16277;48.890;2.306;2023-04-03T17:18:24;22.40;47.90
29255;DHT22;16277;48.890;2.306;2023-04-03T17:33:29;21.90;49.00
29255;DHT22;16277;48.890;2.306;2023-04-03T17:48:36;21.10;50.00
29255;DHT22;16277;48.890;2.306;2023-04-03T18:03:41;19.80;52.80
29255;DHT22;16277;48.890;2.306;2023-04-03T18:18:45;18.80;55.20
29255;DHT22;16277;48.890;2.306;2023-04-03T18:33:56;18.10;56.00
29255;DHT22;16277;48.890;2.306;2023-04-03T18:49:01;17.70;57.00
29255;DHT22;16277;48.890;2.306;2023-04-03T19:04:07;17.40;56.90
29255;DHT22;16277;48.890;2.306;2023-04-03T19:19:11;17.30;57.70
29255;DHT22;16277;48.890;2.306;2023-04-03T19:34:16;17.20;58.20
29255;DHT22;16277;48.890;2.306;2023-04-03T19:49:21;17.00;59.70
29255;DHT22;16277;48.890;2.306;2023-04-03T20:04:25;16.90;60.90
29255;DHT22;16277;48.890;2.306;2023-04-03T20:19:30;16.60;62.20
29255;DHT22;16277;48.890;2.306;2023-04-03T20:34:34;16.40;62.70
29255;DHT22;16277;48.890;2.306;2023-04-03T20:49:39;16.20;63.80
29255;DHT22;16277;48.890;2.306;2023-04-03T21:04:49;16.00;64.40
29255;DHT22;16277;48.890;2.306;2023-04-03T21:19:54;15.80;65.00
29255;DHT22;16277;48.890;2.306;2023-04-03T21:34:58;15.70;65.50
29255;DHT22;16277;48.890;2.306;2023-04-03T21:50:03;15.20;66.20
29255;DHT22;16277;48.890;2.306;2023-04-03T22:05:08;15.20;67.00
29255;DHT22;16277;48.890;2.306;2023-04-03T22:20:13;15.10;67.50
29255;DHT22;16277;48.890;2.306;2023-04-03T22:35:17;15.00;68.00
29255;DHT22;16277;48.890;2.306;2023-04-03T22:50:22;15.20;69.20
29255;DHT22;16277;48.890;2.306;2023-04-03T23:05:26;14.80;69.90
29255;DHT22;16277;48.890;2.306;2023-04-03T23:20:31;14.90;67.00
29255;DHT22;16277;48.890;2.306;2023-04-03T23:35:41;14.70;61.40
29255;DHT22;16277;48.890;2.306;2023-04-03T23:50:45;14.40;60.80
